Time;durP1;ratioP1;P1;durP2;ratioP2;P2;SDS_P1;SDS_P2;PMS_P1;PMS_P2;Temp;Humidity;BMP_temperature;BMP_pressure;BME280_temperature;BME280_humidity;BME280_pressure;Samples;Min_cycle;Max_cycle;Signal;HPM_P1;HPM_P2
2023/01/03 00:01:22;;;;;;;36.08;22.42;;;8.60;97.40;;;;;;5041158;28;20072;-74
2023/01/03 00:03:49;;;;;;;39.92;25.50;;;8.60;97.30;;;;;;5044717;28;20032;-74
2023/01/03 00:06:20;;;;;;;40.40;21.52;;;8.60;97.30;;;;;;5039093;28;20037;-74
2023/01/03 00:08:46;;;;;;;37.75;22.83;;;8.60;97.30;;;;;;5039342;28;20029;-74
2023/01/03 00:11:13;;;;;;;39.38;21.83;;;8.50;97.20;;;;;;5026408;28;20025;-75
2023/01/03 00:13:39;;;;;;;40.33;23.70;;;8.50;97.20;;;;;;5040097;28;20097;-74
2023/01/03 00:16:12;;;;;;;41.05;22.20;;;8.50;97.30;;;;;;5068859;28;20041;-74
2023/01/03 00:18:38;;;;;;;37.80;22.08;;;8.50;97.30;;;;;;5052466;28;20017;-74
2023/01/03 00:21:04;;;;;;;43.13;25.27;;;8.60;97.40;;;;;;5041428;28;20357;-74
2023/01/03 00:23:30;;;;;;;38.90;23.08;;;8.50;97.40;;;;;;5035723;28;20483;-73
2023/01/03 00:25:55;;;;;;;44.40;24.52;;;8.50;97.40;;;;;;5057116;28;20044;-73
2023/01/03 00:28:21;;;;;;;38.25;23.08;;;8.50;97.40;;;;;;5050263;28;20048;-73
2023/01/03 00:30:46;;;;;;;39.22;22.67;;;8.60;97.40;;;;;;5041688;28;20479;-74
2023/01/03 00:33:12;;;;;;;42.45;23.17;;;8.60;97.40;;;;;;5030925;28;20029;-75
2023/01/03 00:35:37;;;;;;;38.10;23.67;;;8.60;97.30;;;;;;5044560;28;20028;-74
2023/01/03 00:38:03;;;;;;;40.53;24.50;;;8.60;97.20;;;;;;5037193;28;20128;-75
2023/01/03 00:40:29;;;;;;;37.25;23.23;;;8.70;97.10;;;;;;5057822;28;20017;-75
2023/01/03 00:45:38;;;;;;;39.92;22.55;;;8.70;97.00;;;;;;5050939;28;20040;-74
2023/01/03 00:48:04;;;;;;;40.72;22.13;;;8.60;96.90;;;;;;5042998;28;20026;-74
2023/01/03 00:50:30;;;;;;;31.00;19.05;;;8.60;96.80;;;;;;5047020;28;20022;-74
2023/01/03 00:52:55;;;;;;;34.22;20.17;;;8.70;96.70;;;;;;5038259;28;20040;-74
2023/01/03 00:55:21;;;;;;;30.55;19.88;;;8.70;96.60;;;;;;5047582;28;20040;-74
2023/01/03 00:57:46;;;;;;;34.53;21.13;;;8.70;96.40;;;;;;5064766;28;20459;-74
2023/01/03 01:00:12;;;;;;;42.47;25.73;;;8.70;96.30;;;;;;5043470;28;20475;-73
2023/01/03 01:02:38;;;;;;;34.78;22.45;;;8.70;96.10;;;;;;5060741;28;20029;-74
2023/01/03 01:05:04;;;;;;;30.58;20.90;;;8.70;96.10;;;;;;5052556;28;20029;-74
2023/01/03 01:07:29;;;;;;;28.63;17.80;;;8.70;96.00;;;;;;5055277;28;20016;-75
2023/01/03 01:09:55;;;;;;;33.78;20.90;;;8.70;96.00;;;;;;5041842;28;20421;-74
2023/01/03 01:12:21;;;;;;;31.05;19.48;;;8.70;96.00;;;;;;5057991;28;20108;-74
2023/01/03 01:14:46;;;;;;;36.83;22.23;;;8.70;96.00;;;;;;5032024;28;20387;-74
2023/01/03 01:17:12;;;;;;;40.67;26.27;;;8.70;96.00;;;;;;5022787;28;20017;-75
2023/01/03 01:19:40;;;;;;;37.78;23.90;;;8.80;96.10;;;;;;5022289;28;20044;-74
2023/01/03 01:22:06;;;;;;;39.00;23.35;;;8.80;96.20;;;;;;5054681;28;20385;-75
2023/01/03 01:24:33;;;;;;;38.33;23.52;;;8.80;96.30;;;;;;5039479;28;20068;-74
2023/01/03 01:27:00;;;;;;;37.47;23.83;;;8.80;96.40;;;;;;5051014;28;20077;-74
2023/01/03 01:29:26;;;;;;;45.63;26.50;;;8.80;96.50;;;;;;5061647;28;20070;-75
2023/01/03 01:31:52;;;;;;;51.28;28.48;;;8.90;96.50;;;;;;5051649;28;20029;-75
2023/01/03 01:34:17;;;;;;;42.50;25.30;;;8.90;96.60;;;;;;5055716;28;20146;-75
2023/01/03 01:36:45;;;;;;;37.58;24.90;;;8.90;96.70;;;;;;5050152;28;20442;-74
2023/01/03 01:39:14;;;;;;;38.67;23.88;;;8.90;96.60;;;;;;5051133;28;20068;-75
2023/01/03 01:44:43;;;;;;;37.40;23.17;;;8.90;96.50;;;;;;5054818;28;20095;-74
2023/01/03 01:47:12;;;;;;;40.65;24.88;;;8.90;96.50;;;;;;5044710;28;20119;-74
2023/01/03 01:49:38;;;;;;;39.40;23.42;;;8.90;96.40;;;;;;5044536;28;20036;-74
2023/01/03 01:52:04;;;;;;;36.78;24.15;;;8.90;96.30;;;;;;5042466;28;20024;-74
2023/01/03 01:54:30;;;;;;;41.78;24.75;;;8.90;96.20;;;;;;5067320;28;20044;-75
2023/01/03 01:56:56;;;;;;;36.72;22.95;;;8.90;96.20;;;;;;5035689;28;20056;-75
2023/01/03 01:59:22;;;;;;;41.58;24.70;;;8.90;96.20;;;;;;5044126;28;20057;-75
2023/01/03 02:01:48;;;;;;;45.25;27.20;;;8.90;96.20;;;;;;5055832;28;20518;-75
2023/01/03 02:04:20;;;;;;;52.40;29.83;;;8.90;96.20;;;;;;5051981;28;20025;-74
2023/01/03 02:06:46;;;;;;;52.28;30.90;;;8.80;96.20;;;;;;5034296;28;20047;-75
2023/01/03 02:09:12;;;;;;;40.60;26.95;;;8.90;96.30;;;;;;5056468;28;20382;-74
2023/01/03 02:15:25;;;;;;;43.28;29.05;;;8.90;96.30;;;;;;5041870;28;20071;-75
2023/01/03 02:17:54;;;;;;;51.40;31.60;;;8.90;96.30;;;;;;5026934;28;20024;-74
2023/01/03 02:20:22;;;;;;;66.82;39.00;;;8.90;96.30;;;;;;5043168;28;20033;-75
2023/01/03 02:23:00;;;;;;;50.25;30.88;;;8.90;96.40;;;;;;5039416;28;20161;-74
2023/01/03 02:25:28;;;;;;;45.65;30.25;;;8.80;96.50;;;;;;5034876;28;20046;-74
2023/01/03 02:28:37;;;;;;;40.45;27.63;;;8.80;96.60;;;;;;5038875;28;20056;-74
2023/01/03 02:31:28;;;;;;;44.80;29.83;;;8.80;96.70;;;;;;5047954;28;20053;-74
2023/01/03 02:33:58;;;;;;;46.38;29.63;;;8.80;96.70;;;;;;5039356;28;20046;-74
2023/01/03 02:36:33;;;;;;;39.63;27.42;;;8.80;96.70;;;;;;5029023;28;20030;-74
2023/01/03 02:39:41;;;;;;;37.53;24.83;;;8.80;96.70;;;;;;5050825;28;20065;-74
2023/01/03 02:45:17;;;;;;;43.20;29.77;;;8.70;96.80;;;;;;5057685;28;20070;-74
2023/01/03 02:47:57;;;;;;;30.80;20.58;;;8.70;96.90;;;;;;5049550;28;20021;-75
2023/01/03 02:50:26;;;;;;;39.15;25.63;;;8.70;96.90;;;;;;5042020;28;20024;-75
2023/01/03 02:52:55;;;;;;;39.58;26.20;;;8.70;97.00;;;;;;5027690;28;20489;-74
2023/01/03 02:55:26;;;;;;;50.05;32.95;;;8.60;97.00;;;;;;5049956;28;20013;-74
2023/01/03 02:58:04;;;;;;;46.30;31.58;;;8.50;97.10;;;;;;5031934;28;20116;-75
2023/01/03 03:00:32;;;;;;;48.67;31.42;;;8.50;97.20;;;;;;5056397;28;20146;-74
2023/01/03 03:03:08;;;;;;;45.25;30.58;;;8.50;97.20;;;;;;5037945;28;20836;-74
2023/01/03 03:05:45;;;;;;;42.08;28.08;;;8.40;97.30;;;;;;5032233;28;20084;-74
2023/01/03 03:08:11;;;;;;;43.65;28.58;;;8.40;97.60;;;;;;5023672;28;20033;-74
2023/01/03 03:13:44;;;;;;;48.53;28.83;;;8.60;97.30;;;;;;5036617;28;20506;-75
2023/01/03 03:16:46;;;;;;;49.15;30.02;;;8.60;97.20;;;;;;5055314;28;20043;-74
2023/01/03 03:25:36;;;;;;;67.35;39.10;;;8.50;97.20;;;;;;5052998;28;20068;-74
2023/01/03 03:30:54;;;;;;;46.03;31.70;;;8.50;97.30;;;;;;5054879;28;20121;-74
2023/01/03 03:33:23;;;;;;;57.05;34.92;;;8.50;97.20;;;;;;5058758;28;20035;-74
2023/01/03 03:35:56;;;;;;;45.17;30.95;;;8.50;97.20;;;;;;5044723;28;20017;-75
2023/01/03 03:38:37;;;;;;;36.92;26.17;;;8.50;97.20;;;;;;5036378;28;20024;-75
2023/01/03 03:47:07;;;;;;;46.08;31.55;;;8.60;97.00;;;;;;5049317;28;20128;-73
2023/01/03 03:49:37;;;;;;;55.30;36.22;;;8.50;96.90;;;;;;5040421;28;20180;-74
2023/01/03 03:52:06;;;;;;;51.10;31.85;;;8.50;96.90;;;;;;5040552;28;20364;-74
2023/01/03 03:54:36;;;;;;;44.13;31.20;;;8.50;96.90;;;;;;5032330;28;20037;-75
2023/01/03 03:57:24;;;;;;;45.78;32.45;;;8.40;97.00;;;;;;5050722;28;20443;-75
2023/01/03 03:59:55;;;;;;;42.95;30.10;;;8.40;97.00;;;;;;5045260;28;20021;-75
2023/01/03 04:02:23;;;;;;;41.35;30.17;;;8.40;96.90;;;;;;5053639;28;20525;-75
2023/01/03 04:04:54;;;;;;;43.92;31.30;;;8.40;96.90;;;;;;5051191;28;20029;-74
2023/01/03 04:07:20;;;;;;;43.80;31.85;;;8.30;96.90;;;;;;5037858;28;20021;-75
2023/01/03 04:09:45;;;;;;;41.92;29.20;;;8.30;97.00;;;;;;5048966;28;20507;-73
2023/01/03 04:12:11;;;;;;;43.47;30.80;;;8.30;97.00;;;;;;5050762;28;20450;-74
2023/01/03 04:14:36;;;;;;;41.72;30.08;;;8.30;97.00;;;;;;5066817;28;20036;-74
2023/01/03 04:17:02;;;;;;;37.80;27.80;;;8.30;96.90;;;;;;5057327;28;20024;-74
2023/01/03 04:19:28;;;;;;;33.95;24.60;;;8.20;96.80;;;;;;5045359;28;20022;-73
2023/01/03 04:21:53;;;;;;;35.47;28.20;;;8.30;96.90;;;;;;5042632;28;20093;-74
2023/01/03 04:24:21;;;;;;;41.08;30.40;;;8.20;96.80;;;;;;5052903;28;20111;-74
2023/01/03 04:26:47;;;;;;;33.13;24.50;;;8.20;96.80;;;;;;5051790;28;20055;-75
2023/01/03 04:29:12;;;;;;;43.70;29.95;;;8.20;96.70;;;;;;5052410;28;20033;-74
2023/01/03 04:31:38;;;;;;;32.33;23.08;;;8.20;96.70;;;;;;5043034;28;20047;-74
2023/01/03 04:34:05;;;;;;;43.60;30.27;;;8.20;96.60;;;;;;5051127;28;20033;-75
2023/01/03 04:36:31;;;;;;;34.33;25.25;;;8.20;96.60;;;;;;5033638;28;20417;-74
2023/01/03 04:38:56;;;;;;;38.60;27.48;;;8.20;96.50;;;;;;5053563;28;20062;-74
2023/01/03 04:41:22;;;;;;;38.45;27.17;;;8.10;96.50;;;;;;5035497;28;20029;-74
2023/01/03 04:44:06;;;;;;;33.08;22.75;;;8.00;96.30;;;;;;5047534;28;20021;-74
2023/01/03 04:46:35;;;;;;;28.08;19.80;;;7.90;96.50;;;;;;5047999;28;20052;-73
2023/01/03 04:49:01;;;;;;;35.83;28.33;;;7.80;97.00;;;;;;5041794;28;20114;-74
2023/01/03 04:51:27;;;;;;;35.50;23.73;;;7.80;96.80;;;;;;5049937;28;20021;-74
2023/01/03 04:53:53;;;;;;;36.47;26.98;;;7.70;96.60;;;;;;5042831;28;20041;-74
2023/01/03 04:56:34;;;;;;;33.15;21.35;;;7.80;96.70;;;;;;5049642;28;20025;-74
2023/01/03 04:59:00;;;;;;;36.92;26.05;;;7.70;96.50;;;;;;5036287;28;20037;-74
2023/01/03 05:01:26;;;;;;;33.72;24.48;;;7.70;96.40;;;;;;5063390;28;20029;-75
2023/01/03 05:03:57;;;;;;;31.10;22.90;;;7.70;96.40;;;;;;5061500;28;20024;-75
2023/01/03 05:06:23;;;;;;;32.70;22.85;;;7.70;96.30;;;;;;5035260;28;20071;-73
2023/01/03 05:08:49;;;;;;;33.05;23.25;;;7.70;96.20;;;;;;5042280;28;20067;-74
2023/01/03 05:11:15;;;;;;;28.00;18.60;;;7.80;96.20;;;;;;5045399;28;20029;-74
2023/01/03 05:13:41;;;;;;;36.65;22.70;;;7.80;96.20;;;;;;5037353;28;20114;-72
2023/01/03 05:16:11;;;;;;;34.42;21.77;;;7.70;96.10;;;;;;5057311;28;20029;-74
2023/01/03 05:18:41;;;;;;;23.40;16.40;;;7.70;96.00;;;;;;5048238;28;20024;-74
2023/01/03 05:26:46;;;;;;;39.83;22.85;;;7.70;95.80;;;;;;5054663;28;20056;-73
2023/01/03 05:29:15;;;;;;;33.10;21.00;;;7.70;95.70;;;;;;5044174;28;20033;-74
2023/01/03 05:31:41;;;;;;;25.00;17.30;;;7.70;95.70;;;;;;5051987;28;20017;-74
2023/01/03 05:34:07;;;;;;;24.88;18.00;;;7.60;95.80;;;;;;5037860;28;20135;-74
2023/01/03 05:36:33;;;;;;;35.88;21.38;;;7.60;95.80;;;;;;5050081;28;20020;-74
2023/01/03 05:38:59;;;;;;;28.45;18.30;;;7.60;95.80;;;;;;5047893;28;20373;-75
2023/01/03 05:44:08;;;;;;;29.92;19.30;;;7.60;95.60;;;;;;5034210;28;20036;-73
2023/01/03 05:46:34;;;;;;;30.48;19.13;;;7.50;95.50;;;;;;5045132;28;20115;-73
2023/01/03 05:48:59;;;;;;;30.30;18.00;;;7.50;95.50;;;;;;5033043;28;20029;-75
2023/01/03 05:51:25;;;;;;;26.77;18.48;;;7.50;95.40;;;;;;5057120;28;20596;-74
2023/01/03 05:53:51;;;;;;;28.70;16.80;;;7.50;95.40;;;;;;5036003;28;20510;-75
2023/01/03 05:56:17;;;;;;;30.33;19.20;;;7.40;95.40;;;;;;5043304;28;20029;-74
2023/01/03 05:58:43;;;;;;;25.20;16.98;;;7.40;95.40;;;;;;5031985;28;20025;-73
2023/01/03 06:01:10;;;;;;;25.35;15.73;;;7.40;95.30;;;;;;5044076;28;20026;-74
2023/01/03 06:03:36;;;;;;;25.55;17.63;;;7.30;95.30;;;;;;5042349;28;20029;-73
2023/01/03 06:06:03;;;;;;;29.40;19.65;;;7.30;95.30;;;;;;5041139;28;20032;-73
2023/01/03 06:08:28;;;;;;;27.80;18.33;;;7.30;95.30;;;;;;5042763;28;20071;-74
2023/01/03 06:10:54;;;;;;;28.05;19.50;;;7.30;95.20;;;;;;5044563;28;20767;-74
2023/01/03 06:13:20;;;;;;;34.88;19.42;;;7.30;95.20;;;;;;5041212;28;20037;-74
2023/01/03 06:17:53;;;;;;;24.25;16.50;;;7.30;95.20;;;;;;5025926;28;20034;-74
2023/01/03 06:18:34;;;;;;;24.80;17.30;;;7.30;95.20;;;;;;5048117;28;20454;-75
2023/01/03 06:21:03;;;;;;;28.65;20.05;;;7.30;95.10;;;;;;5039061;28;20033;-73
2023/01/03 06:23:28;;;;;;;31.20;18.98;;;7.30;95.10;;;;;;5042022;28;20018;-74
2023/01/03 06:25:54;;;;;;;27.08;16.65;;;7.30;95.10;;;;;;5024483;28;20102;-73
2023/01/03 06:28:20;;;;;;;30.02;19.08;;;7.30;95.20;;;;;;5057722;28;20022;-73
2023/01/03 06:30:47;;;;;;;27.48;16.45;;;7.30;95.20;;;;;;5048054;28;20052;-74
2023/01/03 06:33:13;;;;;;;30.77;19.90;;;7.30;95.20;;;;;;5039109;28;20499;-74
2023/01/03 06:35:39;;;;;;;28.85;19.17;;;7.30;95.20;;;;;;5014320;28;20029;-74
2023/01/03 06:38:04;;;;;;;27.70;17.30;;;7.30;95.30;;;;;;5052989;28;20029;-74
2023/01/03 06:40:30;;;;;;;26.35;15.68;;;7.30;95.30;;;;;;5039704;28;20014;-74
2023/01/03 06:42:56;;;;;;;23.45;14.68;;;7.30;95.30;;;;;;5048016;28;20012;-74
2023/01/03 06:53:39;;;;;;;21.95;14.68;;;7.40;95.40;;;;;;5047563;28;20028;-74
2023/01/03 06:56:06;;;;;;;20.23;13.27;;;7.40;95.30;;;;;;5041845;28;20017;-73
2023/01/03 06:58:32;;;;;;;26.88;14.50;;;7.40;95.40;;;;;;5047646;28;20102;-73
2023/01/03 07:01:01;;;;;;;25.45;14.50;;;7.40;95.40;;;;;;5055899;28;20034;-73
2023/01/03 07:03:26;;;;;;;21.13;12.50;;;7.30;95.40;;;;;;5046924;28;20098;-76
2023/01/03 07:05:53;;;;;;;18.75;9.45;;;7.40;95.90;;;;;;5038339;28;20103;-75
2023/01/03 07:08:19;;;;;;;22.17;12.15;;;8.10;97.60;;;;;;5040550;28;20032;-75
2023/01/03 07:10:45;;;;;;;36.72;20.52;;;9.10;97.90;;;;;;5037099;28;20025;-75
2023/01/03 07:15:55;;;;;;;32.92;21.73;;;10.50;98.20;;;;;;5047033;28;20606;-75
2023/01/03 07:18:20;;;;;;;22.73;15.65;;;10.90;98.50;;;;;;5044205;28;20021;-75
2023/01/03 07:20:46;;;;;;;19.75;12.52;;;11.20;98.70;;;;;;5032020;28;20226;-75
2023/01/03 07:23:12;;;;;;;15.68;9.70;;;11.40;98.40;;;;;;5045474;28;20033;-75
2023/01/03 07:25:40;;;;;;;17.40;9.68;;;11.50;98.00;;;;;;5033603;28;20053;-76
2023/01/03 07:28:11;;;;;;;15.57;8.90;;;11.70;97.60;;;;;;5039028;28;20051;-76
2023/01/03 07:30:38;;;;;;;12.35;8.63;;;11.90;97.30;;;;;;5031868;28;20104;-78
2023/01/03 07:33:04;;;;;;;21.52;11.20;;;12.10;96.90;;;;;;5041051;28;20060;-75
2023/01/03 07:35:34;;;;;;;22.60;11.45;;;12.00;92.10;;;;;;5012946;28;20629;-74
2023/01/03 07:38:00;;;;;;;;;;;11.70;88.60;;;;;;5036088;28;20475;-72
2023/01/03 07:40:25;;;;;;;20.40;11.60;;;11.30;87.80;;;;;;5035083;28;19916;-75
2023/01/03 07:45:39;;;;;;;21.48;14.02;;;10.40;87.50;;;;;;5031041;28;20095;-75
2023/01/03 07:48:05;;;;;;;24.03;14.63;;;10.10;88.70;;;;;;5033758;28;20020;-75
2023/01/03 07:50:31;;;;;;;25.60;15.73;;;9.80;89.60;;;;;;5029585;28;20859;-74
2023/01/03 07:52:56;;;;;;;24.58;14.73;;;9.70;90.40;;;;;;5031391;28;20424;-75
2023/01/03 07:55:22;;;;;;;23.02;13.38;;;9.50;91.10;;;;;;5032402;28;20053;-75
2023/01/03 07:57:48;;;;;;;24.52;15.45;;;9.30;91.10;;;;;;5030390;28;20048;-75
2023/01/03 08:00:16;;;;;;;23.08;14.52;;;9.10;91.40;;;;;;5018536;28;20025;-76
2023/01/03 08:02:41;;;;;;;26.27;15.82;;;8.90;91.80;;;;;;5029911;28;20041;-75
2023/01/03 08:05:07;;;;;;;21.52;14.20;;;8.80;92.20;;;;;;5037720;28;20024;-76
2023/01/03 08:07:33;;;;;;;27.58;17.27;;;8.60;92.50;;;;;;5031361;28;20026;-76
2023/01/03 08:15:28;;;;;;;22.80;15.23;;;8.30;93.80;;;;;;5040858;28;20040;-75
2023/01/03 08:17:54;;;;;;;23.25;15.60;;;8.20;93.80;;;;;;5034512;28;20028;-75
2023/01/03 08:20:19;;;;;;;22.98;15.88;;;8.10;94.10;;;;;;5036305;28;20025;-78
2023/01/03 08:22:45;;;;;;;28.75;16.40;;;8.10;94.40;;;;;;5034884;28;20041;-76
2023/01/03 08:25:11;;;;;;;24.23;15.38;;;8.00;94.60;;;;;;5016249;28;20051;-76
2023/01/03 08:27:36;;;;;;;25.85;14.65;;;8.00;94.80;;;;;;5016862;28;20128;-77
2023/01/03 08:30:02;;;;;;;22.40;15.77;;;7.90;95.00;;;;;;5037005;28;20464;-77
2023/01/03 08:32:29;;;;;;;23.92;15.50;;;7.90;95.00;;;;;;5036398;28;20064;-77
2023/01/03 08:34:55;;;;;;;25.25;16.48;;;7.90;95.10;;;;;;5035776;28;20032;-78
2023/01/03 08:37:20;;;;;;;24.90;17.23;;;7.90;95.10;;;;;;5021433;28;22947;-76
2023/01/03 08:39:51;;;;;;;28.85;16.55;;;8.00;95.20;;;;;;5038652;28;20518;-77
2023/01/03 08:42:19;;;;;;;26.52;15.98;;;8.00;95.10;;;;;;5035741;28;20037;-77
2023/01/03 08:44:47;;;;;;;28.40;15.68;;;7.90;95.20;;;;;;5013285;28;20072;-76
2023/01/03 08:47:14;;;;;;;28.55;16.02;;;8.00;95.30;;;;;;5032391;28;20021;-77
2023/01/03 08:50:19;;;;;;;24.63;15.10;;;8.00;95.30;;;;;;5035007;28;20191;-77
2023/01/03 08:52:45;;;;;;;21.90;14.65;;;8.00;95.40;;;;;;5016222;28;20450;-77
2023/01/03 08:55:11;;;;;;;19.63;13.23;;;8.00;95.40;;;;;;5037365;28;20033;-75
2023/01/03 08:57:36;;;;;;;26.23;16.60;;;8.10;95.40;;;;;;5037184;28;20029;-78
2023/01/03 09:00:04;;;;;;;22.75;15.13;;;8.10;95.40;;;;;;5035817;28;20140;-76
2023/01/03 09:02:33;;;;;;;21.77;14.40;;;8.20;95.40;;;;;;5039385;28;20025;-76
2023/01/03 09:04:59;;;;;;;24.55;14.48;;;8.10;95.40;;;;;;5036387;28;20463;-75
2023/01/03 09:07:25;;;;;;;16.00;10.20;;;8.20;95.90;;;;;;5035390;28;20170;-75
2023/01/03 09:09:51;;;;;;;20.55;14.68;;;8.10;95.90;;;;;;5035918;28;20024;-75
2023/01/03 09:12:17;;;;;;;25.55;13.55;;;8.10;96.20;;;;;;5036983;28;20040;-77
2023/01/03 09:14:47;;;;;;;20.20;13.35;;;8.10;96.30;;;;;;5038602;28;20025;-77
2023/01/03 09:17:13;;;;;;;19.63;12.02;;;8.10;96.30;;;;;;5040549;28;20032;-74
2023/01/03 09:19:38;;;;;;;19.38;11.95;;;8.20;96.40;;;;;;5039768;28;20045;-77
2023/01/03 09:22:04;;;;;;;22.15;13.05;;;8.20;96.60;;;;;;5016759;28;20056;-77
2023/01/03 09:24:30;;;;;;;22.38;12.70;;;8.20;96.90;;;;;;5019870;28;20029;-77
2023/01/03 09:26:55;;;;;;;23.80;12.52;;;8.20;97.20;;;;;;5035433;28;20199;-76
2023/01/03 09:29:22;;;;;;;23.17;15.23;;;8.20;97.80;;;;;;5041246;28;20033;-77
2023/01/03 09:31:50;;;;;;;19.77;12.70;;;8.20;97.70;;;;;;5025475;28;20469;-76
2023/01/03 09:34:16;;;;;;;23.23;13.43;;;8.20;97.80;;;;;;5022477;28;20379;-75
2023/01/03 09:36:42;;;;;;;31.52;14.93;;;8.20;97.70;;;;;;5048257;28;20104;-78
2023/01/03 09:39:09;;;;;;;16.23;9.48;;;8.20;97.60;;;;;;5025522;28;20021;-75
2023/01/03 09:41:38;;;;;;;23.15;12.65;;;8.20;97.80;;;;;;5027654;28;20044;-76
2023/01/03 09:44:07;;;;;;;25.90;14.77;;;8.20;98.20;;;;;;5048777;28;20026;-76
2023/01/03 09:46:34;;;;;;;28.77;15.75;;;8.20;98.10;;;;;;5037822;28;20055;-75
2023/01/03 09:49:02;;;;;;;22.77;14.93;;;8.20;98.10;;;;;;5038782;28;20036;-76
2023/01/03 10:03:44;;;;;;;32.40;17.48;;;8.20;98.30;;;;;;5045413;28;20124;-77
2023/01/03 10:06:23;;;;;;;25.45;15.57;;;8.30;98.30;;;;;;5044342;28;20040;-79
2023/01/03 10:09:10;;;;;;;27.95;16.35;;;8.30;98.30;;;;;;5037378;28;20029;-77
2023/01/03 10:11:48;;;;;;;17.15;11.18;;;8.40;98.80;;;;;;5042352;28;20037;-77
2023/01/03 10:14:29;;;;;;;21.45;12.07;;;8.40;98.90;;;;;;5047205;28;20087;-78
2023/01/03 10:17:13;;;;;;;24.02;13.68;;;8.40;98.90;;;;;;5036946;28;20049;-77
2023/01/03 10:19:49;;;;;;;25.33;13.52;;;8.40;99.00;;;;;;5045940;28;20108;-77
2023/01/03 10:22:23;;;;;;;28.08;16.10;;;8.50;99.00;;;;;;5042408;28;20029;-76
2023/01/03 10:25:03;;;;;;;29.88;16.55;;;8.50;99.00;;;;;;5027608;28;20045;-76
2023/01/03 10:27:33;;;;;;;23.15;13.50;;;8.60;99.00;;;;;;5037511;28;20125;-76
2023/01/03 10:30:02;;;;;;;34.90;18.50;;;8.60;99.00;;;;;;5034887;28;20546;-77
2023/01/03 10:33:09;;;;;;;27.48;14.63;;;8.60;99.00;;;;;;5035908;28;20282;-78
2023/01/03 10:35:35;;;;;;;26.10;13.10;;;8.60;99.10;;;;;;5042827;28;20068;-78
2023/01/03 10:38:07;;;;;;;25.75;16.70;;;8.70;99.00;;;;;;5044337;28;20146;-81
2023/01/03 10:40:45;;;;;;;24.65;15.63;;;8.60;98.90;;;;;;5036669;28;20052;-78
2023/01/03 10:43:31;;;;;;;20.20;10.02;;;8.60;98.90;;;;;;5036734;28;20025;-76
2023/01/03 10:46:00;;;;;;;19.83;12.98;;;8.70;99.10;;;;;;5038336;28;20391;-79
2023/01/03 10:48:37;;;;;;;25.08;13.90;;;8.70;99.20;;;;;;5035776;28;20066;-78
2023/01/03 10:51:20;;;;;;;23.85;14.80;;;8.70;99.30;;;;;;5037279;28;20017;-78
2023/01/03 10:53:46;;;;;;;18.63;9.93;;;8.80;99.20;;;;;;5035801;28;20025;-78
2023/01/03 10:56:15;;;;;;;18.98;11.55;;;8.80;99.20;;;;;;5038405;28;20039;-78
2023/01/03 10:58:41;;;;;;;25.60;14.05;;;8.90;99.30;;;;;;5003970;28;20068;-79
2023/01/03 11:01:21;;;;;;;22.00;12.40;;;8.90;99.20;;;;;;5043632;28;20049;-78
2023/01/03 11:04:17;;;;;;;19.90;11.07;;;8.90;99.20;;;;;;5039226;28;20093;-79
2023/01/03 11:06:59;;;;;;;21.38;13.15;;;8.90;99.20;;;;;;5042629;28;20479;-79
2023/01/03 11:09:31;;;;;;;22.65;12.70;;;8.90;99.20;;;;;;5025845;28;20490;-79
2023/01/03 11:12:18;;;;;;;22.05;12.30;;;9.00;99.30;;;;;;5035232;28;20021;-78
2023/01/03 11:14:54;;;;;;;17.80;10.35;;;9.00;99.20;;;;;;5021013;28;20132;-77
2023/01/03 11:17:20;;;;;;;20.75;12.15;;;9.10;99.20;;;;;;5015015;28;20044;-77
2023/01/03 11:19:47;;;;;;;21.27;13.07;;;9.00;99.20;;;;;;5033548;28;20033;-77
2023/01/03 11:22:35;;;;;;;20.52;13.05;;;9.10;99.10;;;;;;5039859;28;20033;-78
2023/01/03 11:25:44;;;;;;;23.27;12.75;;;9.10;99.00;;;;;;5034902;28;20048;-75
2023/01/03 11:28:40;;;;;;;18.65;12.35;;;9.10;98.90;;;;;;5034434;28;20375;-77
2023/01/03 11:31:35;;;;;;;21.17;12.50;;;9.10;98.70;;;;;;5046047;28;20021;-77
2023/01/03 11:34:34;;;;;;;18.15;10.85;;;9.10;98.80;;;;;;5049601;28;20037;-77
2023/01/03 11:37:00;;;;;;;19.87;12.40;;;9.20;98.80;;;;;;5060471;28;20029;-78
2023/01/03 11:39:56;;;;;;;18.40;10.65;;;9.20;98.80;;;;;;5029373;28;20033;-78
2023/01/03 11:42:52;;;;;;;25.15;12.90;;;9.20;98.80;;;;;;5038934;28;20033;-77
2023/01/03 11:45:38;;;;;;;22.20;11.50;;;9.20;98.60;;;;;;5030498;28;20404;-78
2023/01/03 11:48:41;;;;;;;21.15;10.73;;;9.20;98.70;;;;;;5052649;28;20419;-77
2023/01/03 11:51:30;;;;;;;15.35;9.32;;;9.20;98.70;;;;;;5039872;28;20037;-77
2023/01/03 11:54:10;;;;;;;17.08;8.85;;;9.30;98.60;;;;;;5025458;28;20781;-77
2023/01/03 11:56:45;;;;;;;19.05;10.93;;;9.30;98.80;;;;;;5043627;28;20102;-77
2023/01/03 11:59:38;;;;;;;14.63;8.88;;;9.30;98.90;;;;;;5037475;28;20052;-77
2023/01/03 12:02:37;;;;;;;18.75;11.00;;;9.30;98.70;;;;;;5048164;28;20126;-78
2023/01/03 12:05:41;;;;;;;15.68;9.65;;;9.20;98.70;;;;;;5034559;28;20057;-77
2023/01/03 12:08:34;;;;;;;15.30;9.82;;;9.20;98.70;;;;;;5048230;28;20348;-77
2023/01/03 12:11:27;;;;;;;16.17;10.05;;;9.30;98.70;;;;;;5045034;28;20033;-78
2023/01/03 12:14:11;;;;;;;18.98;11.25;;;9.20;98.80;;;;;;5058435;28;20081;-77
2023/01/03 12:17:09;;;;;;;18.25;10.55;;;9.30;98.70;;;;;;5047049;28;20106;-77
2023/01/03 12:19:42;;;;;;;18.70;10.18;;;9.40;98.90;;;;;;5030057;28;20038;-79
2023/01/03 12:22:43;;;;;;;16.08;10.00;;;9.40;98.70;;;;;;5034154;28;20523;-77
2023/01/03 12:25:14;;;;;;;13.68;7.25;;;9.40;98.60;;;;;;5035876;28;20037;-77
2023/01/03 12:28:09;;;;;;;22.88;10.88;;;9.30;98.50;;;;;;5044428;28;20104;-77
2023/01/03 12:30:43;;;;;;;14.13;9.35;;;9.30;98.40;;;;;;5048162;28;20037;-78
2023/01/03 12:33:15;;;;;;;15.02;9.02;;;9.40;98.20;;;;;;5046720;28;20068;-77
2023/01/03 12:35:55;;;;;;;12.63;8.85;;;9.40;98.10;;;;;;5046050;28;20020;-77
2023/01/03 12:38:26;;;;;;;14.90;8.27;;;9.40;97.70;;;;;;5050675;28;20017;-77
2023/01/03 12:41:02;;;;;;;17.17;8.13;;;9.40;97.90;;;;;;5032864;28;20426;-78
2023/01/03 12:43:32;;;;;;;10.50;5.85;;;9.40;97.60;;;;;;5053357;28;20021;-78
2023/01/03 12:46:08;;;;;;;;;;;9.40;97.50;;;;;;5067484;28;20056;-78
2023/01/03 12:48:51;;;;;;;10.85;6.60;;;9.50;97.70;;;;;;5028381;28;19984;-78
2023/01/03 12:51:20;;;;;;;14.60;8.30;;;9.40;97.30;;;;;;5046634;28;20116;-79
2023/01/03 12:53:52;;;;;;;15.30;8.93;;;9.40;97.40;;;;;;5025958;28;20020;-78
2023/01/03 12:56:39;;;;;;;14.15;7.65;;;9.50;97.30;;;;;;5030490;28;20029;-78
2023/01/03 12:59:19;;;;;;;16.67;7.25;;;9.50;97.30;;;;;;5046501;28;20032;-78
2023/01/03 13:01:52;;;;;;;;;;;9.50;97.30;;;;;;5031317;28;20057;-78
2023/01/03 13:04:23;;;;;;;17.20;9.90;;;9.50;97.30;;;;;;5040703;28;20446;-78
2023/01/03 13:07:10;;;;;;;12.27;7.28;;;9.50;97.30;;;;;;5048572;28;20032;-78
2023/01/03 13:09:42;;;;;;;17.33;8.52;;;9.60;97.30;;;;;;5049341;28;20135;-78
2023/01/03 13:12:21;;;;;;;14.68;7.45;;;9.60;97.10;;;;;;5016559;28;20465;-77
2023/01/03 13:15:13;;;;;;;17.15;9.38;;;9.60;97.40;;;;;;5038118;28;20033;-78
2023/01/03 13:17:47;;;;;;;16.23;9.07;;;9.60;96.90;;;;;;5042115;28;20704;-80
2023/01/03 13:20:32;;;;;;;9.93;6.72;;;9.70;97.20;;;;;;5051199;28;20032;-78
2023/01/03 13:23:01;;;;;;;15.85;7.85;;;9.80;97.20;;;;;;5029890;28;20048;-78
2023/01/03 13:25:39;;;;;;;14.10;8.20;;;9.60;96.80;;;;;;5044090;28;20071;-79
2023/01/03 13:28:25;;;;;;;15.27;8.82;;;9.60;96.60;;;;;;5044803;28;20025;-78
2023/01/03 13:31:18;;;;;;;15.93;9.25;;;9.70;96.60;;;;;;5045228;28;20056;-78
2023/01/03 13:33:55;;;;;;;15.35;8.93;;;9.70;96.50;;;;;;5015573;28;20777;-78
2023/01/03 13:36:23;;;;;;;14.30;7.70;;;9.70;96.40;;;;;;5036420;28;20036;-79
2023/01/03 13:38:49;;;;;;;13.00;8.13;;;9.80;96.70;;;;;;5050421;28;20020;-77
2023/01/03 13:41:36;;;;;;;13.23;6.50;;;9.80;96.40;;;;;;5041731;28;20030;-78
2023/01/03 13:44:19;;;;;;;16.60;8.07;;;9.70;96.30;;;;;;5043143;28;20538;-78
2023/01/03 13:46:47;;;;;;;13.82;6.63;;;9.70;96.10;;;;;;5038989;28;20156;-77
2023/01/03 13:49:19;;;;;;;9.70;5.15;;;9.70;95.90;;;;;;5046720;28;20108;-78
2023/01/03 13:51:51;;;;;;;9.82;5.28;;;9.70;95.70;;;;;;5049829;28;20051;-78
2023/01/03 13:54:17;;;;;;;10.75;4.45;;;9.70;95.40;;;;;;5057877;28;20034;-78
2023/01/03 13:56:45;;;;;;;10.70;4.82;;;9.80;95.40;;;;;;5035451;28;20037;-76
2023/01/03 13:59:13;;;;;;;10.45;4.65;;;9.80;94.80;;;;;;5039974;28;20022;-76
2023/01/03 14:02:04;;;;;;;15.23;6.22;;;9.80;95.00;;;;;;5049150;28;20028;-78
2023/01/03 14:04:54;;;;;;;10.88;4.82;;;9.80;94.80;;;;;;5047774;28;20048;-78
2023/01/03 14:07:57;;;;;;;7.90;4.55;;;9.80;94.60;;;;;;5054280;28;20109;-77
2023/01/03 14:10:32;;;;;;;9.00;4.20;;;9.90;94.80;;;;;;5024298;28;20026;-76
2023/01/03 14:13:20;;;;;;;11.40;5.22;;;9.90;94.50;;;;;;5033397;28;20040;-76